createdAt,value
2023-07-14T00:00:40.596Z,17.00
2023-07-14T00:03:08.674Z,17.00
2023-07-14T00:05:38.398Z,17.00
2023-07-14T00:08:07.138Z,17.00
2023-07-14T00:10:38.011Z,16.90
2023-07-14T00:13:11.081Z,17.00
2023-07-14T00:15:40.833Z,17.00
2023-07-14T00:18:17.901Z,17.00
2023-07-14T00:20:44.896Z,17.00
2023-07-14T00:23:13.724Z,17.00
2023-07-14T00:25:41.496Z,16.90
2023-07-14T00:28:16.742Z,16.90
2023-07-14T00:30:44.245Z,16.90
2023-07-14T00:33:14.061Z,16.90
2023-07-14T00:35:41.483Z,16.90
2023-07-14T00:38:09.145Z,16.90
2023-07-14T00:40:39.410Z,16.90
2023-07-14T00:43:16.001Z,16.90
2023-07-14T00:45:43.383Z,17.00
2023-07-14T00:48:13.613Z,17.00
2023-07-14T00:50:46.267Z,17.00
2023-07-14T00:53:18.595Z,17.00
2023-07-14T00:55:49.413Z,17.10
2023-07-14T00:58:20.443Z,17.10
2023-07-14T01:01:14.287Z,17.10
2023-07-14T01:03:43.539Z,17.10
2023-07-14T01:06:15.690Z,17.00
2023-07-14T01:08:50.877Z,17.00
2023-07-14T01:11:21.454Z,17.00
2023-07-14T01:13:50.080Z,17.00
2023-07-14T01:16:17.757Z,17.00
2023-07-14T01:18:46.872Z,17.00
2023-07-14T01:21:14.673Z,16.90
2023-07-14T01:24:01.275Z,16.90
2023-07-14T01:26:51.403Z,16.90
2023-07-14T01:29:19.868Z,16.90
2023-07-14T01:31:48.374Z,16.90
2023-07-14T01:34:17.094Z,16.90
2023-07-14T01:36:45.090Z,16.90
2023-07-14T01:39:12.960Z,16.90
2023-07-14T01:41:39.962Z,16.90
2023-07-14T01:44:17.444Z,16.90
2023-07-14T01:46:46.439Z,16.90
2023-07-14T01:49:30.645Z,16.90
2023-07-14T01:52:02.487Z,16.90
2023-07-14T01:54:34.210Z,16.90
2023-07-14T01:57:04.356Z,16.90
2023-07-14T01:59:36.681Z,16.80
2023-07-14T02:02:07.886Z,16.80
2023-07-14T02:04:38.690Z,16.80
2023-07-14T02:07:05.944Z,16.80
2023-07-14T02:09:36.571Z,16.80
2023-07-14T02:12:06.338Z,16.80
2023-07-14T02:14:41.641Z,16.80
2023-07-14T02:17:22.213Z,16.80
2023-07-14T02:19:50.211Z,16.70
2023-07-14T02:22:19.015Z,16.70
2023-07-14T02:24:47.560Z,16.70
2023-07-14T02:27:16.452Z,16.70
2023-07-14T02:29:45.160Z,16.70
2023-07-14T02:32:20.848Z,16.60
2023-07-14T02:34:53.151Z,16.70
2023-07-14T02:38:04.480Z,16.60
2023-07-14T02:40:36.271Z,16.60
2023-07-14T02:43:07.032Z,16.60
2023-07-14T02:45:38.397Z,16.50
2023-07-14T02:48:10.214Z,16.50
2023-07-14T02:50:37.447Z,16.50
2023-07-14T02:53:04.605Z,16.50
2023-07-14T02:55:31.778Z,16.50
2023-07-14T02:57:59.279Z,16.40
2023-07-14T03:00:26.443Z,16.40
2023-07-14T03:02:55.287Z,16.40
2023-07-14T03:05:24.565Z,16.40
2023-07-14T03:07:51.873Z,16.40
2023-07-14T03:10:19.074Z,16.30
2023-07-14T03:12:46.539Z,16.20
2023-07-14T03:15:14.075Z,16.20
2023-07-14T03:17:41.162Z,16.20
2023-07-14T03:20:12.579Z,16.20
2023-07-14T03:22:42.576Z,16.20
2023-07-14T03:25:10.659Z,16.10
2023-07-14T03:27:40.134Z,16.00
2023-07-14T03:30:08.574Z,16.00
2023-07-14T03:32:35.558Z,16.00
2023-07-14T03:35:02.658Z,16.00
2023-07-14T03:37:31.368Z,16.00
2023-07-14T03:39:58.992Z,15.90
2023-07-14T03:42:26.014Z,15.90
2023-07-14T03:44:53.409Z,15.90
2023-07-14T03:47:20.632Z,15.90
2023-07-14T03:49:47.992Z,15.90
2023-07-14T03:52:14.910Z,15.90
2023-07-14T03:54:43.384Z,15.90
2023-07-14T03:57:10.456Z,15.90
2023-07-14T03:59:37.422Z,15.90
2023-07-14T04:02:04.972Z,15.90
2023-07-14T04:04:32.400Z,15.90
2023-07-14T04:06:59.695Z,15.90
2023-07-14T04:09:27.329Z,15.90
2023-07-14T04:11:55.926Z,15.80
2023-07-14T04:14:23.394Z,15.80
2023-07-14T04:16:50.665Z,15.80
2023-07-14T04:19:19.038Z,15.80
2023-07-14T04:21:47.248Z,15.80
2023-07-14T04:24:14.326Z,15.80
2023-07-14T04:26:41.222Z,15.80
2023-07-14T04:29:12.756Z,15.80
2023-07-14T04:31:40.461Z,15.70
2023-07-14T04:34:07.753Z,15.70
2023-07-14T04:36:34.840Z,15.70
2023-07-14T04:39:05.625Z,15.70
2023-07-14T04:41:35.652Z,15.70
2023-07-14T04:44:06.490Z,15.70
2023-07-14T04:46:35.028Z,15.80
2023-07-14T04:49:02.183Z,15.80
2023-07-14T04:51:29.269Z,15.80
2023-07-14T04:53:56.248Z,15.80
2023-07-14T04:56:23.440Z,15.90
2023-07-14T04:58:50.514Z,15.90
2023-07-14T05:01:18.998Z,15.90
2023-07-14T05:03:47.558Z,15.90
2023-07-14T05:06:15.461Z,15.90
2023-07-14T05:08:43.401Z,15.90
2023-07-14T05:11:10.384Z,15.90
2023-07-14T05:13:37.569Z,15.90
2023-07-14T05:16:05.219Z,16.00
2023-07-14T05:18:32.284Z,16.00
2023-07-14T05:21:02.162Z,16.10
2023-07-14T05:23:29.894Z,16.00
2023-07-14T05:25:57.227Z,16.10
2023-07-14T05:28:25.355Z,16.10
2023-07-14T05:30:54.712Z,16.10
2023-07-14T05:33:22.326Z,16.20
2023-07-14T05:35:50.336Z,16.20
2023-07-14T05:38:18.899Z,16.30
2023-07-14T05:40:58.395Z,16.40
2023-07-14T05:43:29.061Z,16.40
2023-07-14T05:45:56.387Z,16.40
2023-07-14T05:48:23.562Z,16.40
2023-07-14T05:50:50.980Z,16.40
2023-07-14T05:53:19.922Z,16.50
2023-07-14T05:55:48.056Z,16.50
2023-07-14T05:58:15.266Z,16.60
2023-07-14T06:00:43.980Z,16.70
2023-07-14T06:03:14.541Z,16.70
2023-07-14T06:05:42.802Z,16.80
2023-07-14T06:08:09.930Z,16.90
2023-07-14T06:10:38.700Z,16.90
2023-07-14T06:13:06.137Z,17.00
2023-07-14T06:15:33.230Z,17.10
2023-07-14T06:18:00.316Z,17.20
2023-07-14T06:20:29.990Z,17.20
2023-07-14T06:22:59.066Z,17.20
2023-07-14T06:25:27.101Z,17.30
2023-07-14T06:27:55.861Z,17.40
2023-07-14T06:30:26.217Z,17.40
2023-07-14T06:32:53.408Z,17.50
2023-07-14T06:35:20.785Z,17.70
2023-07-14T06:37:48.209Z,17.70
2023-07-14T06:40:15.602Z,17.70
2023-07-14T06:42:43.297Z,17.70
2023-07-14T06:45:13.173Z,17.80
2023-07-14T06:47:40.891Z,17.90
2023-07-14T06:50:08.606Z,18.00
2023-07-14T06:52:37.967Z,18.10
2023-07-14T06:55:05.893Z,18.20
2023-07-14T06:57:34.312Z,18.30
2023-07-14T07:00:01.375Z,18.30
2023-07-14T07:02:30.136Z,18.50
2023-07-14T07:04:57.847Z,18.70
2023-07-14T07:07:25.419Z,18.90
2023-07-14T07:09:56.281Z,19.00
2023-07-14T07:12:23.774Z,19.10
2023-07-14T07:14:51.353Z,19.10
2023-07-14T07:17:18.356Z,19.20
2023-07-14T07:19:46.904Z,19.30
2023-07-14T07:22:14.124Z,19.40
2023-07-14T07:24:41.226Z,19.40
2023-07-14T07:27:08.421Z,19.40
2023-07-14T07:29:35.469Z,19.60
2023-07-14T07:32:04.422Z,19.70
2023-07-14T07:34:31.727Z,19.80
2023-07-14T07:37:00.080Z,20.00
2023-07-14T07:39:28.993Z,20.10
2023-07-14T07:41:56.242Z,19.90
2023-07-14T07:44:23.513Z,19.90
2023-07-14T07:46:52.315Z,20.00
2023-07-14T07:49:19.479Z,20.00
2023-07-14T07:51:47.089Z,20.10
2023-07-14T07:54:15.756Z,20.20
2023-07-14T07:56:44.189Z,20.20
2023-07-14T07:59:11.374Z,20.30
2023-07-14T08:01:38.681Z,20.40
2023-07-14T08:04:06.350Z,20.60
2023-07-14T08:06:33.686Z,20.70
2023-07-14T08:09:00.652Z,20.90
2023-07-14T08:11:28.968Z,20.90
2023-07-14T08:13:56.014Z,20.90
2023-07-14T08:16:23.076Z,21.00
2023-07-14T08:18:50.315Z,21.00
2023-07-14T08:21:17.448Z,21.00
2023-07-14T08:23:45.725Z,21.10
2023-07-14T08:26:14.439Z,21.00
2023-07-14T08:28:43.803Z,21.20
2023-07-14T08:31:12.295Z,21.10
2023-07-14T08:33:44.498Z,21.00
2023-07-14T08:36:13.495Z,21.00
2023-07-14T08:38:41.756Z,20.90
2023-07-14T08:41:18.215Z,20.90
2023-07-14T08:44:07.859Z,20.90
2023-07-14T08:46:42.842Z,20.80
2023-07-14T08:49:17.935Z,20.70
2023-07-14T08:51:46.242Z,20.70
2023-07-14T08:54:17.580Z,20.80
2023-07-14T08:56:45.739Z,20.80
2023-07-14T08:59:19.006Z,20.90
2023-07-14T09:01:51.365Z,20.90
2023-07-14T09:04:23.107Z,21.20
2023-07-14T09:06:50.418Z,21.30
2023-07-14T09:09:21.084Z,21.40
2023-07-14T09:12:00.314Z,21.40
2023-07-14T09:14:48.132Z,21.40
2023-07-14T09:17:23.643Z,21.50
2023-07-14T09:20:24.434Z,21.50
2023-07-14T09:23:02.318Z,21.70
2023-07-14T09:25:35.275Z,21.90
2023-07-14T09:28:03.086Z,22.00
2023-07-14T09:30:36.075Z,22.20
2023-07-14T09:33:04.997Z,22.40
2023-07-14T09:35:32.122Z,22.70
2023-07-14T09:38:04.660Z,22.80
2023-07-14T09:40:33.478Z,22.90
2023-07-14T09:43:03.092Z,23.20
2023-07-14T09:45:34.185Z,23.30
2023-07-14T09:48:05.131Z,23.40
2023-07-14T09:50:37.220Z,23.40
2023-07-14T09:53:08.504Z,23.40
2023-07-14T09:55:53.791Z,23.40
2023-07-14T09:58:24.748Z,23.60
2023-07-14T10:00:55.846Z,23.80
2023-07-14T10:03:42.866Z,24.00
2023-07-14T10:06:15.331Z,24.20
2023-07-14T10:08:47.987Z,24.40
2023-07-14T10:11:27.490Z,24.40
2023-07-14T10:13:58.832Z,24.30
2023-07-14T10:16:28.713Z,24.30
2023-07-14T10:18:58.320Z,24.30
2023-07-14T10:21:29.698Z,24.20
2023-07-14T10:24:03.362Z,24.10
2023-07-14T10:26:31.106Z,24.00
2023-07-14T10:28:59.772Z,23.90
2023-07-14T10:31:39.047Z,23.80
2023-07-14T10:34:29.155Z,23.70
2023-07-14T10:37:01.512Z,23.70
2023-07-14T10:39:37.497Z,23.50
2023-07-14T10:42:09.934Z,23.40
2023-07-14T10:44:40.983Z,23.30
2023-07-14T10:47:15.941Z,23.20
2023-07-14T10:49:47.406Z,23.00
2023-07-14T10:52:19.561Z,22.90
2023-07-14T10:54:51.913Z,22.90
2023-07-14T10:57:39.933Z,22.90
2023-07-14T11:00:21.256Z,22.90
2023-07-14T11:02:57.804Z,22.80
2023-07-14T11:05:27.474Z,22.70
2023-07-14T11:07:54.782Z,22.60
2023-07-14T11:10:30.860Z,22.40
2023-07-14T11:13:05.108Z,22.40
2023-07-14T11:15:41.404Z,22.60
2023-07-14T11:18:22.639Z,22.80
2023-07-14T11:20:59.063Z,22.90
2023-07-14T11:23:43.180Z,22.90
2023-07-14T11:26:18.777Z,22.90
2023-07-14T11:28:53.698Z,22.80
2023-07-14T11:31:25.297Z,22.80
2023-07-14T11:34:12.969Z,22.90
2023-07-14T11:36:49.134Z,22.90
2023-07-14T11:39:25.659Z,22.90
2023-07-14T11:41:53.619Z,23.00
2023-07-14T11:44:23.401Z,22.90
2023-07-14T11:46:51.505Z,23.00
2023-07-14T11:49:38.296Z,23.00
2023-07-14T11:52:12.577Z,22.90
2023-07-14T11:54:55.068Z,23.00
2023-07-14T11:57:23.777Z,23.20
2023-07-14T11:59:59.872Z,23.20
2023-07-14T12:02:32.717Z,23.20
2023-07-14T12:05:21.367Z,23.20
2023-07-14T12:08:13.950Z,23.30
2023-07-14T12:10:48.053Z,23.50
2023-07-14T12:13:27.878Z,23.50
2023-07-14T12:16:19.799Z,23.60
2023-07-14T12:19:07.016Z,23.90
2023-07-14T12:22:03.976Z,24.20
2023-07-14T12:24:32.885Z,24.40
2023-07-14T12:27:28.458Z,24.60
2023-07-14T12:30:04.423Z,24.70
2023-07-14T12:32:31.558Z,24.80
2023-07-14T12:34:58.829Z,24.90
2023-07-14T12:37:33.014Z,25.10
2023-07-14T12:40:00.268Z,25.00
2023-07-14T12:42:27.393Z,25.00
2023-07-14T12:44:55.417Z,24.90
2023-07-14T12:47:23.107Z,24.90
2023-07-14T12:49:51.815Z,25.00
2023-07-14T12:52:27.047Z,25.20
2023-07-14T12:55:00.369Z,25.20
2023-07-14T12:57:30.660Z,25.20
2023-07-14T12:59:58.015Z,25.10
2023-07-14T13:02:25.555Z,25.10
2023-07-14T13:04:52.836Z,24.90
2023-07-14T13:07:22.376Z,24.80
2023-07-14T13:10:01.448Z,24.60
2023-07-14T13:12:31.457Z,24.70
2023-07-14T13:15:01.829Z,24.70
2023-07-14T13:17:29.111Z,24.90
2023-07-14T13:19:56.469Z,25.00
2023-07-14T13:22:26.625Z,25.00
2023-07-14T13:25:02.868Z,25.00
2023-07-14T13:27:32.232Z,25.20
2023-07-14T13:30:00.884Z,25.00
2023-07-14T13:32:29.670Z,24.90
2023-07-14T13:34:58.912Z,25.00
2023-07-14T13:37:29.031Z,25.10
2023-07-14T13:39:59.153Z,25.30
2023-07-14T13:42:35.122Z,25.30
2023-07-14T13:45:03.268Z,25.40
2023-07-14T13:47:42.886Z,25.50
2023-07-14T13:50:10.367Z,25.60
2023-07-14T13:52:37.705Z,25.60
2023-07-14T13:55:13.974Z,25.60
2023-07-14T13:57:47.374Z,25.60
2023-07-14T14:00:18.685Z,25.50
2023-07-14T14:02:50.284Z,25.40
2023-07-14T14:05:20.419Z,25.50
2023-07-14T14:07:50.140Z,25.50
2023-07-14T14:10:19.434Z,25.40
2023-07-14T14:12:48.265Z,25.40
2023-07-14T14:15:17.019Z,25.40
2023-07-14T14:17:46.699Z,25.40
2023-07-14T14:20:18.604Z,25.50
2023-07-14T14:22:48.290Z,25.60
2023-07-14T14:25:17.626Z,25.70
2023-07-14T14:27:44.817Z,25.70
2023-07-14T14:30:13.816Z,25.80
2023-07-14T14:32:41.329Z,25.70
2023-07-14T14:35:23.503Z,25.60
2023-07-14T14:37:50.978Z,25.60
2023-07-14T14:40:18.464Z,25.50
2023-07-14T14:42:46.411Z,25.50
2023-07-14T14:45:22.086Z,25.50
2023-07-14T14:47:49.464Z,25.60
2023-07-14T14:50:17.861Z,25.60
2023-07-14T14:52:45.527Z,25.70
2023-07-14T14:55:17.158Z,25.70
2023-07-14T14:57:48.010Z,25.80
2023-07-14T15:00:21.296Z,25.90
2023-07-14T15:02:48.408Z,26.00
2023-07-14T15:05:17.900Z,26.00
2023-07-14T15:07:45.941Z,26.10
2023-07-14T15:10:12.987Z,26.10
2023-07-14T15:12:41.323Z,26.10
2023-07-14T15:15:19.698Z,26.20
2023-07-14T15:17:47.653Z,26.20
2023-07-14T15:20:15.881Z,26.20
2023-07-14T15:22:43.857Z,26.20
2023-07-14T15:25:13.857Z,26.30
2023-07-14T15:27:43.667Z,26.30
2023-07-14T15:30:24.401Z,26.30
2023-07-14T15:32:51.934Z,26.20
2023-07-14T15:35:21.315Z,26.20
2023-07-14T15:37:48.507Z,26.20
2023-07-14T15:40:18.488Z,26.30
2023-07-14T15:42:45.953Z,26.20
2023-07-14T15:45:17.639Z,26.10
2023-07-14T15:47:46.603Z,26.00
2023-07-14T15:50:14.660Z,25.90
2023-07-14T15:52:45.347Z,25.90
2023-07-14T15:55:17.730Z,25.80
2023-07-14T15:57:45.405Z,25.70
2023-07-14T16:00:15.843Z,25.60
2023-07-14T16:02:47.067Z,25.60
2023-07-14T16:05:15.705Z,25.60
2023-07-14T16:07:43.737Z,25.60
2023-07-14T16:10:16.565Z,25.60
2023-07-14T16:12:46.374Z,25.60
2023-07-14T16:15:18.683Z,25.50
2023-07-14T16:17:48.564Z,25.50
2023-07-14T16:20:18.662Z,25.50
2023-07-14T16:22:51.321Z,25.40
2023-07-14T16:25:20.774Z,25.40
2023-07-14T16:27:48.282Z,25.40
2023-07-14T16:30:20.555Z,25.40
2023-07-14T16:32:49.187Z,25.40
2023-07-14T16:35:17.650Z,25.30
2023-07-14T16:37:46.629Z,25.30
2023-07-14T16:40:15.939Z,25.20
2023-07-14T16:42:42.946Z,25.20
2023-07-14T16:45:13.686Z,25.10
2023-07-14T16:47:41.737Z,25.10
2023-07-14T16:50:11.704Z,25.10
2023-07-14T16:52:41.371Z,25.00
2023-07-14T16:55:15.313Z,25.00
2023-07-14T16:57:42.641Z,25.10
2023-07-14T17:00:23.080Z,25.10
2023-07-14T17:02:51.533Z,25.10
2023-07-14T17:05:24.731Z,25.10
2023-07-14T17:07:53.181Z,25.10
2023-07-14T17:10:23.095Z,25.10
2023-07-14T17:12:50.932Z,25.00
2023-07-14T17:15:18.794Z,25.00
2023-07-14T17:17:46.814Z,25.00
2023-07-14T17:20:15.517Z,25.10
2023-07-14T17:22:45.382Z,25.00
2023-07-14T17:25:28.689Z,25.00
2023-07-14T17:27:55.846Z,25.00
2023-07-14T17:30:26.610Z,25.00
2023-07-14T17:32:54.334Z,25.00
2023-07-14T17:35:23.791Z,25.00
2023-07-14T17:37:54.507Z,24.90
2023-07-14T17:40:27.118Z,25.00
2023-07-14T17:42:57.023Z,24.90
2023-07-14T17:45:25.830Z,24.90
2023-07-14T17:47:54.309Z,24.90
2023-07-14T17:50:22.911Z,24.90
2023-07-14T17:52:54.815Z,24.90
2023-07-14T17:55:23.683Z,24.90
2023-07-14T17:57:54.146Z,24.90
2023-07-14T18:00:24.430Z,24.90
2023-07-14T18:02:53.410Z,24.90
2023-07-14T18:05:24.377Z,24.80
2023-07-14T18:07:55.299Z,24.80
2023-07-14T18:10:25.586Z,24.70
2023-07-14T18:12:53.288Z,24.80
2023-07-14T18:15:26.501Z,24.70
2023-07-14T18:17:55.194Z,24.70
2023-07-14T18:20:24.621Z,24.70
2023-07-14T18:22:54.049Z,24.60
2023-07-14T18:25:23.148Z,24.50
2023-07-14T18:27:51.723Z,24.50
2023-07-14T18:30:20.573Z,24.50
2023-07-14T18:32:48.281Z,24.50
2023-07-14T18:35:36.929Z,24.60
2023-07-14T18:38:06.810Z,24.50
2023-07-14T18:40:37.506Z,24.50
2023-07-14T18:43:06.658Z,24.50
2023-07-14T18:45:35.842Z,24.50
2023-07-14T18:48:15.465Z,24.40
2023-07-14T18:50:44.593Z,24.40
2023-07-14T18:53:19.438Z,24.40
2023-07-14T18:55:47.440Z,24.40
2023-07-14T18:58:15.746Z,24.30
2023-07-14T19:00:46.942Z,24.30
2023-07-14T19:03:18.278Z,24.30
2023-07-14T19:05:46.245Z,24.20
2023-07-14T19:08:15.484Z,24.20
2023-07-14T19:10:43.070Z,24.20
2023-07-14T19:13:15.732Z,24.20
2023-07-14T19:15:42.795Z,24.10
2023-07-14T19:18:19.464Z,24.10
2023-07-14T19:20:48.851Z,24.00
2023-07-14T19:23:17.585Z,24.00
2023-07-14T19:25:44.912Z,23.90
2023-07-14T19:28:16.753Z,23.90
2023-07-14T19:30:45.731Z,23.90
2023-07-14T19:33:18.893Z,23.90
2023-07-14T19:35:46.065Z,23.90
2023-07-14T19:38:13.517Z,23.80
2023-07-14T19:40:42.515Z,23.70
2023-07-14T19:43:15.767Z,23.70
2023-07-14T19:45:43.089Z,23.70
2023-07-14T19:48:14.032Z,23.60
2023-07-14T19:50:41.247Z,23.60
2023-07-14T19:53:16.407Z,23.50
2023-07-14T19:55:45.062Z,23.50
2023-07-14T19:58:13.244Z,23.50
2023-07-14T20:00:42.966Z,23.50
2023-07-14T20:03:21.791Z,23.40
2023-07-14T20:05:50.657Z,23.40
2023-07-14T20:08:19.812Z,23.40
2023-07-14T20:10:49.644Z,23.40
2023-07-14T20:13:19.866Z,23.40
2023-07-14T20:15:48.745Z,23.30
2023-07-14T20:18:18.561Z,23.30
2023-07-14T20:20:46.311Z,23.30
2023-07-14T20:23:19.870Z,23.30
2023-07-14T20:25:49.730Z,23.20
2023-07-14T20:28:19.316Z,23.20
2023-07-14T20:30:55.205Z,23.20
2023-07-14T20:33:22.959Z,23.20
2023-07-14T20:35:51.420Z,23.10
2023-07-14T20:38:21.152Z,23.10
2023-07-14T20:40:52.900Z,23.10
2023-07-14T20:43:22.002Z,23.00
2023-07-14T20:45:51.255Z,23.00
2023-07-14T20:48:21.600Z,22.90
2023-07-14T20:50:49.507Z,22.90
2023-07-14T20:53:19.117Z,22.90
2023-07-14T20:55:47.790Z,22.80
2023-07-14T20:58:21.096Z,22.70
2023-07-14T21:00:49.795Z,22.70
2023-07-14T21:03:19.453Z,22.60
2023-07-14T21:05:50.545Z,22.50
2023-07-14T21:08:20.484Z,22.50
2023-07-14T21:10:48.281Z,22.50
2023-07-14T21:13:22.891Z,22.40
2023-07-14T21:15:51.892Z,22.40
2023-07-14T21:18:20.600Z,22.40
2023-07-14T21:20:48.734Z,22.40
2023-07-14T21:23:25.499Z,22.40
2023-07-14T21:25:56.231Z,22.40
2023-07-14T21:28:25.673Z,22.40
2023-07-14T21:30:56.004Z,22.30
2023-07-14T21:33:29.122Z,22.30
2023-07-14T21:35:56.680Z,22.30
2023-07-14T21:38:24.176Z,22.20
2023-07-14T21:40:53.804Z,22.20
2023-07-14T21:43:28.718Z,22.20
2023-07-14T21:45:55.744Z,22.20
2023-07-14T21:48:26.272Z,22.10
2023-07-14T21:50:56.418Z,22.10
2023-07-14T21:53:26.310Z,22.10
2023-07-14T21:55:54.292Z,22.00
2023-07-14T21:58:23.895Z,22.00
2023-07-14T22:00:52.333Z,21.90
2023-07-14T22:03:21.527Z,21.90
2023-07-14T22:05:53.199Z,21.90
2023-07-14T22:08:23.475Z,21.90
2023-07-14T22:10:53.112Z,21.90
2023-07-14T22:13:23.870Z,21.90
2023-07-14T22:15:53.305Z,21.90
2023-07-14T22:18:32.025Z,21.90
2023-07-14T22:21:13.218Z,21.90
2023-07-14T22:23:40.563Z,21.90
2023-07-14T22:26:12.492Z,21.90
2023-07-14T22:28:40.174Z,21.90
2023-07-14T22:31:14.703Z,21.90
2023-07-14T22:33:41.702Z,21.90
2023-07-14T22:36:11.397Z,21.90
2023-07-14T22:38:38.482Z,21.90
2023-07-14T22:41:18.700Z,21.80
2023-07-14T22:43:46.511Z,21.80
2023-07-14T22:46:15.182Z,21.80
2023-07-14T22:48:42.714Z,21.90
2023-07-14T22:51:16.663Z,21.90
2023-07-14T22:53:43.782Z,21.90
2023-07-14T22:56:17.622Z,21.90
2023-07-14T22:58:46.914Z,21.90
2023-07-14T23:01:20.718Z,21.90
2023-07-14T23:03:49.531Z,21.90
2023-07-14T23:06:18.798Z,21.90
2023-07-14T23:08:46.438Z,21.90
2023-07-14T23:11:16.691Z,21.90
2023-07-14T23:13:44.365Z,21.90
2023-07-14T23:16:12.899Z,21.90
2023-07-14T23:18:42.076Z,21.90
2023-07-14T23:21:16.455Z,22.00
2023-07-14T23:23:44.265Z,22.00
2023-07-14T23:26:12.530Z,22.00
2023-07-14T23:28:39.804Z,22.00
2023-07-14T23:31:16.001Z,22.00
2023-07-14T23:33:44.985Z,22.10
2023-07-14T23:36:14.526Z,22.10
2023-07-14T23:38:43.959Z,22.20
2023-07-14T23:41:13.548Z,22.20
2023-07-14T23:43:41.103Z,22.30
2023-07-14T23:46:10.969Z,22.30
2023-07-14T23:48:40.774Z,22.40
2023-07-14T23:51:14.290Z,22.40
2023-07-14T23:53:42.661Z,22.50
2023-07-14T23:56:10.167Z,22.50
2023-07-14T23:58:37.934Z,22.60
